St.peterburg Pilot — UAMI — position and weather

sailwx.info

Track history (hours):
 
Tides and Currents Weather Stations Pressure Air Temp Water Temp Dewpoint Dewpoint Depression Visibility Wind Speed Wind Dir Waves Ship Positions

St.peterburg Pilot

Last reported at 2015-Sep-02 09:31 UTC. Time now 2015-Sep-02 10:33 UTC.
Position N 60°00' E 029°43'.

Length 59 m; draft 3.8 m.

Type: Pilot. MMSI: 273436530.

Date/timePositionNaut miles runAvg speedWind from/ knotsBaromVisibWave heightAir tempDewpointWater temp
2015-Sep-02 09:31N 60°00' E 029°43'0 0.0
2015-Sep-02 06:14N 60°00' E 029°43'  
2015-Aug-29 20:19N 59°59' E 029°42'0 0.0
2015-Aug-29 18:23N 59°59' E 029°42'0 0.0
2015-Aug-29 00:20N 59°59' E 029°42'0 0.0
2015-Aug-28 14:33N 59°59' E 029°42'1 0.1
2015-Aug-28 07:19N 60°00' E 029°43'0 0.0
2015-Aug-28 06:28N 60°00' E 029°43'  
2015-Aug-25 16:33N 60°09' E 027°28'12 9.6
2015-Aug-25 15:15N 60°03' E 027°07'3 2.6
2015-Aug-25 14:09N 60°01' E 027°02'0 0.0
2015-Aug-25 13:27N 60°01' E 027°02'0 0.0
2015-Aug-25 12:32N 60°01' E 027°02'0 0.0
2015-Aug-25 11:27N 60°01' E 027°02'0 0.0
2015-Aug-25 10:31N 60°01' E 027°02'0 0.0
2015-Aug-25 09:33N 60°01' E 027°02'0 0.0
2015-Aug-25 08:33N 60°01' E 027°02'0 0.0
2015-Aug-25 07:32N 60°01' E 027°02'0 0.0
2015-Aug-25 06:33N 60°01' E 027°02'0 0.0
2015-Aug-25 05:09N 60°01' E 027°02'0 0.0
2015-Aug-25 04:32N 60°01' E 027°02'0 0.0
2015-Aug-25 03:21N 60°01' E 027°02'0 0.0
2015-Aug-25 02:33N 60°01' E 027°02'0 0.0
2015-Aug-25 01:30N 60°01' E 027°02'0 0.0
2015-Aug-25 00:33N 60°01' E 027°02'0 0.0
2015-Aug-24 23:33N 60°01' E 027°02'0 0.0
2015-Aug-24 22:30N 60°01' E 027°02'0 0.0
2015-Aug-24 21:31N 60°01' E 027°02'0 0.0
2015-Aug-24 20:32N 60°01' E 027°02'4 3.8
2015-Aug-24 19:33N 60°03' E 027°09'1110.8
2015-Aug-24 18:32N 60°08' E 027°28'66 9.3
2015-Aug-24 11:24N 59°60' E 029°40'2 0.6
2015-Aug-24 08:32N 59°59' E 029°43'  
Track history (hours):
 
Tides and Currents Weather Stations Pressure Air Temp Water Temp Dewpoint Dewpoint Depression Visibility Wind Speed Wind Dir Waves Ship Positions

St.peterburg Pilot

Last reported at 2015-Sep-02 09:31 UTC. Time now 2015-Sep-02 10:33 UTC.
Position N 60°00' E 029°43'.

Length 59 m; draft 3.8 m.

Type: Pilot. MMSI: 273436530.

Date/timePositionNaut miles runAvg speedWind from/ knotsBaromVisibWave heightAir tempDewpointWater temp
2015-Sep-02 09:31N 60°00' E 029°43'0 0.0
2015-Sep-02 06:14N 60°00' E 029°43'  
2015-Aug-29 20:19N 59°59' E 029°42'0 0.0
2015-Aug-29 18:23N 59°59' E 029°42'0 0.0
2015-Aug-29 00:20N 59°59' E 029°42'0 0.0
2015-Aug-28 14:33N 59°59' E 029°42'1 0.1
2015-Aug-28 07:19N 60°00' E 029°43'0 0.0
2015-Aug-28 06:28N 60°00' E 029°43'  
2015-Aug-25 16:33N 60°09' E 027°28'12 9.6
2015-Aug-25 15:15N 60°03' E 027°07'3 2.6
2015-Aug-25 14:09N 60°01' E 027°02'0 0.0
2015-Aug-25 13:27N 60°01' E 027°02'0 0.0
2015-Aug-25 12:32N 60°01' E 027°02'0 0.0
2015-Aug-25 11:27N 60°01' E 027°02'0 0.0
2015-Aug-25 10:31N 60°01' E 027°02'0 0.0
2015-Aug-25 09:33N 60°01' E 027°02'0 0.0
2015-Aug-25 08:33N 60°01' E 027°02'0 0.0
2015-Aug-25 07:32N 60°01' E 027°02'0 0.0
2015-Aug-25 06:33N 60°01' E 027°02'0 0.0
2015-Aug-25 05:09N 60°01' E 027°02'0 0.0
2015-Aug-25 04:32N 60°01' E 027°02'0 0.0
2015-Aug-25 03:21N 60°01' E 027°02'0 0.0
2015-Aug-25 02:33N 60°01' E 027°02'0 0.0
2015-Aug-25 01:30N 60°01' E 027°02'0 0.0
2015-Aug-25 00:33N 60°01' E 027°02'0 0.0
2015-Aug-24 23:33N 60°01' E 027°02'0 0.0
2015-Aug-24 22:30N 60°01' E 027°02'0 0.0
2015-Aug-24 21:31N 60°01' E 027°02'0 0.0
2015-Aug-24 20:32N 60°01' E 027°02'4 3.8
2015-Aug-24 19:33N 60°03' E 027°09'1110.8
2015-Aug-24 18:32N 60°08' E 027°28'66 9.3
2015-Aug-24 11:24N 59°60' E 029°40'2 0.6
2015-Aug-24 08:32N 59°59' E 029°43'  

Dump ship's entire track history